Preview of NWS' New Version of Forecast
This preview is not operational and should not be used for support decisions.
Latest weather observations around

Magma FRS (MAMF)

Using English Units (Switch to International System of Units)
Date/ Time (MST) Wind (mph) Vis. (mi) Weather Sky Cond. Temp (°F) Rel. Humidity Wind Chill (°F) Heat Index (°F) Pressure Precip. (in)
Air Dwpt 6 hour Altimeter (inHg) Sea level (inHg) 1 hr 3 hr 6 hr
Max Min
Sep 23 10:44 SSW 14   Clear   85 61     45%   85          
Sep 23 10:29 SSW 11   Clear   84 62     47%   85          
Sep 23 10:14 SSE 10   Clear   83 63     51%   84          
Sep 23 09:59 SW 12   Clear   83 63     51%   84          
Sep 23 09:44 S 9   Clear   81 63     55%   82          
Sep 23 09:29 SSW 9   Clear   80 63     56%   81          
Sep 23 09:14 SSE 8   Clear   80 63     56%   81          
Sep 23 08:59 S 8   Clear   79 63     58%   79          
Sep 23 08:44 SSE 7   Clear   78 62     58%   78          
Sep 23 08:29 ESE 7   Clear   80 62     55%   81          
Sep 23 08:14 S 8   Clear   78 62     59%   78          
Sep 23 07:59 S 10   Clear   78 63     60%   78          
Sep 23 07:44 SSW 9   Clear   77 62     61%   77          
Sep 23 07:29 SSE 8   Clear   76 62     62%   76          
Sep 23 07:14 SSE 10   Clear   75 62     63%   75          
Sep 23 06:59 S 8   Clear   75 62     63%   75          
Sep 23 06:44 S 8   Clear   75 62     63%   75          
Sep 23 06:29 S 7   Clear   75 62     64%   75          
Sep 23 06:14 S 1   Clear   75 63     66%   75          
Sep 23 05:59 WSW 2   Clear   74 65     73%   75          
Sep 23 05:44 SW 10   Clear   76 64     67%   76          
Sep 23 05:29 SSE 12   Clear   77 62     60%   77          
Sep 23 05:14 SSW 14   Clear   77 62     60%   77          
Sep 23 04:59 S 15   Clear   77 62     60%   77          
Sep 23 04:44 S 11   Clear   78 63     60%   78          
Sep 23 04:29 S 8   Clear   77 63     62%   77          
Sep 23 04:14 S 7   Clear   77 64     64%   77          
Sep 23 03:59 S 6   Clear   77 63     63%   77          
Sep 23 03:44 SSW 6   Clear   77 63     63%   77          
Sep 23 03:29 S 6   Clear   77 63     63%   77          
Sep 23 03:14 S 6   Clear   77 63     63%   77          
Sep 23 02:59 SSW 2   Clear   77 64     64%   77          
Sep 23 02:44 SSW 4   Clear   78 63     60%   78          
Sep 23 02:29 Calm   Clear   77 64     64%   77          
Sep 23 02:14 Calm   Clear   77 64     65%   77          
Sep 23 01:59 SSW 1   Clear   78 62     58%   78          
Sep 23 01:44 Calm   Clear   78 62     58%   78          
Sep 23 01:29 Calm   Clear   78 62     58%   78          
Sep 23 01:14 S 2   Clear   78 62     59%   78          
Sep 23 00:59 S 5   Clear   78 61     56%   78          
Sep 23 00:44 S 6   Clear   78 61     56%   78          
Sep 23 00:29 S 7   Clear   79 61     55%   79          
Sep 23 00:14 S 7   Clear   79 61     54%   79          
Sep 22 23:59 SSE 7   Clear   79 60     52%   79          
Sep 22 23:44 S 7   Clear   80 60     50%   81          
Sep 22 23:29 SSE 8   Clear   80 59     48%   80          
Sep 22 23:14 SSW 8   Clear   80 55     43%   80          
Sep 22 22:59 S 8   Clear   80 50     35%   79          
Sep 22 22:44 S 5   Clear   80 45     29%   79          
Sep 22 22:29 S 4   Clear   81 43     26%   80          
Sep 22 22:14 S 6   Clear   81 42     25%   80          
Sep 22 21:59 SSW 6   Clear   83 40     22%   81          
Sep 22 21:44 Calm   Clear   84 37     19%   81          
Sep 22 21:29 Calm   Clear   84 37     19%   81          
Sep 22 21:14 Calm   Clear   84 37     19%   81          
Sep 22 20:59 Calm   Clear   83 38     20%   81          
Sep 22 20:44 Calm   Clear   84 39     20%   81          
Sep 22 20:29 Calm   Clear   83 38     20%   81          
Sep 22 20:14 Calm   Clear   84 40     21%   81          
Sep 22 19:59 Calm   Clear   84 40     21%   81          
Sep 22 19:44 Calm   Clear   84 40     21%   81          
Sep 22 19:29 Calm   Clear   85 41     21%   82          
Sep 22 19:14 Calm   Clear   85 41     21%   82          
Sep 22 18:59 NNW 2   Clear   85 42     22%   82          
Sep 22 18:44 NW 4   Clear   85 42     22%   82          
Sep 22 18:29 NNW 5   Clear   86 44     23%   83          
Sep 22 18:14 NW 6   Clear   88 42     20%   85          
Sep 22 17:59 NW 7   Clear   87 42     21%   84          
Sep 22 17:44 NW 4   Clear   89 41     19%   85          
Sep 22 17:29 NW 4   Clear   89 45     22%   86          
Sep 22 17:14 W 3   Clear   89 46     23%   86          
Sep 22 16:59 NW 5   Clear   91 42     18%   87          
Sep 22 16:44 WNW 2   Clear   91 43     19%   87          
Sep 22 16:29 NW 1   Clear   92 41     17%   88          
Sep 22 16:14 WNW 4   Clear   90 44     20%   86          
Sep 22 15:59 NNW 3   Clear   91 42     18%   87          
Sep 22 15:44 NW 4   Clear   91 42     18%   87          
Sep 22 15:29 WNW 1   Clear   91 39     16%   87          
Sep 22 15:14 WNW 2   Clear   91 39     16%   87          
Sep 22 14:59 NW 1   Clear   91 40     17%   87          
Sep 22 14:44 WSW 2   Clear   91 39     16%   87          
Sep 22 14:29 NW 1   Clear   91 42     18%   87          
Sep 22 14:14 WNW 2   Clear   90 41     18%   86          
Sep 22 13:59 NW 3   Clear   90 41     18%   86          
Sep 22 13:44 WSW 4   Clear   91 42     18%   87          
Sep 22 13:29 NW 4   Clear   89 40     18%   85          
Sep 22 13:14 WNW 4   Clear   89 43     20%   85          
Sep 22 12:59 W 1   Clear   90 41     18%   86          
Sep 22 12:44 SSW 1   Clear   91 40     17%   87          
Sep 22 12:29 WSW 2   Clear   89 40     18%   85          
Sep 22 12:14 NW 1   Clear   88 38     17%   84          
Sep 22 11:59 Calm   Clear   88 35     15%   84          
Sep 22 11:44 WNW 1   Clear   87 37     17%   84          
Sep 22 11:29 Calm   Clear   87 37     17%   84          
Sep 22 11:14 Calm   Clear   85 39     20%   82          
Sep 22 10:59 Calm   Clear   87 35     16%   83          
Sep 22 10:44 Calm   Clear   86 36     17%   83          
Sep 22 10:29 SSE 2   Clear   84 34     17%   81          
Sep 22 10:14 SE 1   Clear   84 40     21%   81          
Sep 22 09:59 SE 3   Clear   83 40     22%   81          
Sep 22 09:44 SSE 7   Clear   82 39     22%   80          
Sep 22 09:29 SE 8   Clear   83 41     23%   81          
Sep 22 09:14 SE 9   Clear   80 44     28%   79          
Sep 22 08:59 SSE 8   Clear   80 38     22%   79          
Sep 22 08:44 SE 7   Clear   79 37     22%   78          
Sep 22 08:29 ESE 6   Clear   77 32     19%   75          
Sep 22 08:14 ESE 3   Clear   76 31     19%   74          
Sep 22 07:59 ESE 2   Clear   75 30     19%   73          
Sep 22 07:44 Calm   Clear   73 30     20%   71          
Sep 22 07:29 Calm   Clear   71 29     21%   69          
Sep 22 07:14 Calm   Clear   69 29     22%              
Sep 22 06:59 Calm   Clear   67 28     23%              
Sep 22 06:44 ESE 1   Clear   66 28     24%              
Sep 22 06:29 Calm   Clear   66 28     24%              
Sep 22 06:14 Calm   Clear   68 28     22%              
Sep 22 05:59 E 2   Clear   66 27     23%              
Sep 22 05:44 ENE 2   Clear   64        %              
Sep 22 05:29 Calm   Clear   66        %              
Sep 22 05:14 Calm   Clear   68 27     21%              
Sep 22 04:59 Calm   Clear   69 27     21%              
Sep 22 04:44 Calm   Clear   68 28     22%              
Sep 22 04:29 Calm   Clear   67 27     22%              
Sep 22 04:14 ESE 4   Clear   65 27     24%              
Sep 22 03:59 Calm   Clear   65        %              
Sep 22 03:44 SE 2   Clear   65        %              
Sep 22 03:29 Calm   Clear   68 27     21%              
Sep 22 03:14 Calm   Clear   64        %              
Sep 22 02:59 Calm   Clear   66 26     22%              
Sep 22 02:44 Calm   Clear   65 27     24%              
Sep 22 02:29 Calm   Clear   65 27     24%              
Sep 22 02:14 Calm   Clear   67 28     23%              
Sep 22 01:59 Calm   Clear   67 26     21%              
Sep 22 01:44 Calm   Clear   67 27     22%              
Sep 22 01:29 Calm   Clear   67        %              
Sep 22 01:14 NE 1   Clear   68 24     19%              
Sep 22 00:59 Calm   Clear   70        %              
Sep 22 00:44 Calm   Clear   68        %              
Sep 22 00:29 Calm   Clear   69        %              
Sep 22 00:14 Calm   Clear   71 24     17%   69          
Sep 21 23:59 Calm   Clear   70        %              
Sep 21 23:44 Calm   Clear   72        %              
Sep 21 23:29 Calm   Clear   72 23     16%   70          
Sep 21 23:14 Calm   Clear   71 24     17%   69          
Notice The following observation data may not be complete
Sep 21 22:59 Calm   Clear            %              
Notice The following observation data may not be complete
Sep 21 22:44 Calm   Clear            %              
Sep 21 22:29 Calm   Clear   72        %              
Sep 21 22:14 N 1   Clear   73        %              
Sep 21 21:59 Calm   Clear   74        %              
Sep 21 21:44 Calm   Clear   73        %              
Sep 21 21:29 NNW 1   Clear   76        %              
Sep 21 21:14 NNW 5   Clear   76        %              
Sep 21 20:59 NNW 7   Clear   75        %              
Sep 21 20:44 NNW 6   Clear   76        %              
Sep 21 20:29 NNW 5   Clear   76        %              
Sep 21 20:14 NNW 4   Clear   78        %              
Sep 21 19:59 NNW 3   Clear   78        %              
Sep 21 19:44 NNW 2   Clear   79        %              
Sep 21 19:29 NNW 3   Clear   81 27     14%   79          
Sep 21 19:14 NW 4   Clear   81 27     14%   79          
Sep 21 18:59 NNW 2   Clear   82 28     14%   80          
Sep 21 18:44 NNW 2   Clear   83 31     15%   80          
Sep 21 18:29 NW 2   Clear   84 33     16%   81          
Sep 21 18:14 Calm   Clear   85 30     14%   82          
Sep 21 17:59 Calm   Clear   87        %              
Sep 21 17:44 NW 1   Clear   88        %              
Sep 21 17:29 NW 1   Clear   88 29     12%   84          
Sep 21 17:14 Calm   Clear   89        %              
Sep 21 16:59 NNW 1   Clear   88        %              
Sep 21 16:44 NNW 2   Clear   89        %              
Sep 21 16:29 Calm   Clear   89        %              
Sep 21 16:14 Calm   Clear   88 29     12%   84          
Sep 21 15:59 WNW 3   Clear   88        %              
Sep 21 15:44 N 1   Clear   89 28     11%   85          
Sep 21 15:29 Calm   Clear   89        %              
Sep 21 15:14 WNW 1   Clear   88 27     11%   84          
Sep 21 14:59 W 2   Clear   88        %              
Sep 21 14:44 Calm   Clear   88 29     12%   84          
Sep 21 14:29 Calm   Clear   88        %              
Sep 21 14:14 WNW 1   Clear   88 29     12%   84          
Sep 21 13:59 WNW 3   Clear   87 28     12%   83          
Sep 21 13:44 SSW 7   Clear   87 26     11%   83          
Sep 21 13:29 WNW 2   Clear   86 29     13%   83          
Sep 21 13:14 W 3   Clear   87 35     16%   83          
Sep 21 12:59 SW 2   Clear   87 28     12%   83          
Sep 21 12:44 WNW 1   Clear   86 27     12%   82          
Sep 21 12:29 Calm   Clear   85        %              
Sep 21 12:14 Calm   Clear   87        %              
Sep 21 11:59 Calm   Clear   84        %              
Sep 21 11:44 W 2   Clear   84        %              
Sep 21 11:29 Calm   Clear   84 26     12%   81          
Sep 21 11:14 WSW 1   Clear   85 27     12%   82          
Sep 21 10:59 WNW 1   Clear   83        %              
Sep 21 10:44 SW 2   Clear   83        %              
Sep 21 10:29 SW 2   Clear   82        %              
Sep 21 10:14 SSW 2   Clear   82        %              
Sep 21 09:59 S 2   Clear   81        %              
Sep 21 09:44 SSW 3   Clear   80        %              
Sep 21 09:29 S 5   Clear   78        %              
Sep 21 09:14 SSE 5   Clear   78 34     20%   76          
Sep 21 08:59 SSW 3   Clear   77        %              
Sep 21 08:44 SSE 4   Clear   76        %              
Sep 21 08:29 S 5   Clear   76 36     23%   74          
Sep 21 08:14 SSE 2   Clear   75 37     25%   73          
Sep 21 07:59 Calm   Clear   74 39     28%   72          
Sep 21 07:44 Calm   Clear   72        %              
Sep 21 07:29 Calm   Clear   70        %              
Sep 21 07:14 Calm   Clear   68        %              
Sep 21 06:59 SE 2   Clear   65        %              
Sep 21 06:44 SE 2   Clear   64        %              
Sep 21 06:29 ESE 5   Clear   66 38     36%              
Sep 21 06:14 SE 2   Clear   65 37     36%              
Sep 21 05:59 Calm   Clear   65 39     38%              
Sep 21 05:44 Calm   Clear   67 41     38%              
Sep 21 05:29 Calm   Clear   66 38     36%              
Sep 21 05:14 Calm   Clear   67 39     36%              
Sep 21 04:59 Calm   Clear   68 39     35%              
Sep 21 04:44 Calm   Clear   69 39     33%              
Sep 21 04:29 Calm   Clear   71 39     31%   69          
Sep 21 04:14 Calm   Clear   71 37     29%   69          
Sep 21 03:59 Calm   Clear   71 33     25%   69          
Sep 21 03:44 Calm   Clear   71 31     23%   69          
Sep 21 03:29 Calm   Clear   70        %              
Sep 21 03:14 Calm   Clear   70        %              
Sep 21 02:59 Calm   Clear   71 30     22%   69          
Sep 21 02:44 Calm   Clear   70 29     22%              
Sep 21 02:29 ESE 1   Clear   69 30     23%              
Sep 21 02:14 ESE 1   Clear   71 30     22%   69          
Sep 21 01:59 Calm   Clear   71 30     22%   69          
Sep 21 01:44 SE 3   Clear   70 30     23%              
Sep 21 01:29 ESE 1   Clear   69 30     23%              
Sep 21 01:14 SE 1   Clear   71 30     22%   69          
Sep 21 00:59 SSE 5   Clear   70 29     22%              
Sep 21 00:44 S 1   Clear   71 30     22%   69          
Sep 21 00:29 SSE 4   Clear   72 30     21%   70          
Sep 21 00:14 SSE 4   Clear   73 30     20%   71          
Sep 20 23:59 SSE 2   Clear   73 30     20%   71          
Sep 20 23:44 SSE 1   Clear   72 30     21%   70          
Sep 20 23:29 SE 1   Clear   72 30     21%   70          
Sep 20 23:14 Calm   Clear   73 28     19%   71          
Notice The following observation data may not be complete
Sep 20 22:59 Calm   Clear            %              
Sep 20 22:44 Calm   Clear   77        %              
Sep 20 22:29 Calm   Clear   75        %              
Sep 20 22:14 Calm   Clear   74        %              
Notice The following observation data may not be complete
Sep 20 21:59 Calm   Clear            %              
Notice The following observation data may not be complete
Sep 20 21:44 Calm   Clear            %              
Sep 20 21:29 NNW 3   Clear   76 29     18%   74          
Sep 20 21:14 WNW 2   Clear   78 31     18%   76          
Sep 20 20:59 Calm   Clear   77        %              
Sep 20 20:44 Calm   Clear   78 30     17%   76          
Sep 20 20:29 NNW 1   Clear   78 30     17%   76          
Sep 20 20:14 NW 2   Clear   78 31     18%   76          
Sep 20 19:59 NW 4   Clear   78 32     19%   76          
Sep 20 19:44 WNW 6   Clear   79 32     18%   77          
Sep 20 19:29 NW 4   Clear   82 31     16%   80          
Sep 20 19:14 NW 4   Clear   82 31     16%   80          
Notice The following observation data may not be complete
Sep 20 18:59 NW 3   Clear     30      %              
Sep 20 18:44 NNW 4   Clear   83 31     15%   80          
Sep 20 18:29 NNW 6   Clear   84 33     16%   81          
Sep 20 18:14 NNW 6   Clear   85 30     14%   82          
Notice The following observation data may not be complete
Sep 20 17:59 NW 6   Clear     34      %              
Sep 20 17:44 WNW 7   Clear   88 33     14%   84          
Sep 20 17:29 SW 12   Clear   91        %              
Sep 20 17:14 SW 10   Clear   91 29     11%   86          
Sep 20 16:59 WSW 10   Clear   92 32     12%   87          
Sep 20 16:44 SW 11   Clear   91 29     11%   86          
Sep 20 16:29 SW 11   Clear   92 30     11%   87          
Sep 20 16:14 WSW 11   Clear   92 30     11%   87          
Sep 20 15:59 SW 10   Clear   92 32     12%   87          
Sep 20 15:44 SW 10   Clear   92 30     11%   87          
Sep 20 15:29 SSW 10   Clear   92 30     11%   87          
Sep 20 15:14 SW 7   Clear   92 30     11%   87          
Sep 20 14:59 W 6   Clear   90 28     11%   85          
Sep 20 14:44 W 2   Clear   90        %              
Sep 20 14:29 SW 4   Clear   90        %              
Sep 20 14:14 SSW 5   Clear   91 27     10%   86          
Sep 20 13:59 SSE 9   Clear   91 27     10%   86          
Sep 20 13:44 SSW 10   Clear   90 26     10%   85          
Sep 20 13:29 SW 6   Clear   90 26     10%   85          
Sep 20 13:14 SW 10   Clear   89 25     10%   84          
Sep 20 12:59 SW 9   Clear   89 25     10%   84          
Sep 20 12:44 SSW 7   Clear   90 26     10%   85          
Sep 20 12:29 SSE 7   Clear   90        %              
Sep 20 12:14 WSW 4   Clear   89 28     11%   85          
Sep 20 11:59 SW 3   Clear   88        %              
Sep 20 11:44 NNE 6   Clear   88        %              
Sep 20 11:29 SSW 1   Clear   86        %              
Sep 20 11:14 Calm   Clear   85        %              
Sep 20 10:59 Calm   Clear   83 29     14%   80          
Sep 20 10:44 Calm   Clear   83 31     15%   80          
Sep 20 10:29 Calm   Clear   82 33     17%   80          
Sep 20 10:14 Calm   Clear   82 33     17%   80          
Sep 20 09:59 Calm   Clear   80        %              
Sep 20 09:44 Calm   Clear   81 32     17%   80          
Sep 20 09:29 Calm   Clear   79 33     19%   77          
Sep 20 09:14 Calm   Clear   79 32     18%   77          
Sep 20 08:59 Calm   Clear   80        %              
Sep 20 08:44 SSW 3   Clear   79        %              
Sep 20 08:29 SSE 2   Clear   78        %              
Sep 20 08:14 ESE 4   Clear   77        %              
Sep 20 07:59 SSE 3   Clear   76        %              
May 15 11:29 N 2   Clear   86 31     14%   83          
Notice The following observation data may not be complete
May 15 10:14     Clear            %              
May 15 09:14 N 1   Clear   80 30     16%   78          
Notice The following observation data may not be complete
May 15 04:59     Clear            %              
May 15 04:29 Calm   Clear   65 23     20%              
May 15 00:44 N 2   Clear   72 27     19%   70          
May 14 19:29 N 2   Clear   84 37     19%   81          
May 14 17:59     Clear   91 33     13%   87          
Notice The following observation data may not be complete
May 14 12:14     Clear            %              
May 14 09:14 N 6   Clear   78 23     13%   76          
May 14 06:44 Calm   Clear   66 21     18%              
Notice The following observation data may not be complete
May 14 05:59     Clear            %              
May 14 04:29 Calm   Clear   61 17     18%              
Notice The following observation data may not be complete
May 14 00:59     Clear            %              
May 13 21:29 N 9   Clear   75 21     13%   73          
May 13 12:14     Clear   81 33     18%   80          
May 13 10:29     Clear   77 32     19%   75          
May 13 06:29 Calm   Clear   62 28     27%              
May 12 23:29     Clear   70 32     24%              
May 12 17:14     Clear   87 40     19%   84          
May 12 02:29 Calm   Clear   70 38     31%              
May 12 01:14 Calm   Clear   75 37     25%   73          
Notice The following observation data may not be complete
May 11 20:14     Clear            %              
May 11 19:29     Clear   90 33     13%   86          
May 11 19:14     Clear   90 36     15%   86          
Notice The following observation data may not be complete
Jun 12 06:44 Calm   Clear     34      %              
Jun 12 04:59 Calm   Clear   68 34     28%              
Jun 12 02:14 S 5   Clear   75 35     23%   73          
Jun 12 01:59 S 5   Clear   75 35     23%   73          
Jun 11 23:29 SSW 5   Clear   79 32     18%   77          
Jun 11 21:29 Calm   Clear   82 37     20%   80          
Jun 11 20:44 Calm   Clear   84 33     16%   81          
Jun 11 17:14 SW 13   Clear   93 35     13%   89          
Jun 11 16:59 SSW 4   Clear   94 31     11%   89          
Jun 11 15:29     Clear   94 31     11%   89          
Jun 11 13:44 Calm   Clear   92 28     10%   87          
Jun 10 16:59 SW 8   Clear   94 24     8%   88          
Jun 10 13:14 WSW 4   Clear   91 29     11%   86          
Jun 09 16:14 Calm   Clear   97 34     11%   92          
Jun 09 10:44 Calm   Clear   91 33     13%   87          
Jun 09 08:14 SE 4   Clear   85 32     15%   82          
Jun 09 03:44 Calm   Clear   81 32     17%   80          
Jun 08 17:14 NW 10   Clear   94 31     11%   89          
Notice The following observation data may not be complete
Jun 08 16:29 Calm   Clear     27      %              
Notice The following observation data may not be complete
Jun 08 14:14 NW 6   Clear     27      %              
Notice The following observation data may not be complete
Jun 08 13:14 Calm   Clear     23      %              
Jun 08 10:59 Calm   Clear   91 24     9%   86          
Jun 08 07:44 Calm   Clear   85        %              
Jun 07 12:29 Calm   Clear   92 36     14%   88          
Jun 07 11:29 Calm   Clear   90 36     15%   86          
Jun 07 08:14 Calm   Clear   84 37     19%   81          
Jun 07 07:14 Calm   Clear   81 36     20%   80          
Jun 06 11:59 Calm   Clear   91 37     15%   87          
Jun 06 08:29 SSW 1   Clear   87 37     17%   84          
Jun 06 05:44 Calm   Clear   78 37     23%   77          
Jun 05 19:14 NNW 1   Clear   93 40     16%   89          
Notice The following observation data may not be complete
Jun 05 17:44 N 4   Clear     40      %              
Jun 05 15:29 NW 8   Clear   97 38     13%   92          
Jun 05 15:14 NW 8   Clear   97 38     13%   92          
Jun 05 12:59 WSW 1   Clear   96 35     12%   91          
Notice The following observation data may not be complete
Jun 05 11:59 Calm   Clear     36      %